sensor_id;sensor_type;location;lat;lon;timestamp;pressure;altitude;pressure_sealevel;temperature;humidity
18988;BME280;5494;51.796;10.952;2023-02-11T00:01:25;100401.16;;;4.18;100.00
18988;BME280;5494;51.796;10.952;2023-02-11T00:03:55;100396.03;;;4.19;100.00
18988;BME280;5494;51.796;10.952;2023-02-11T00:06:25;100395.16;;;4.28;100.00
18988;BME280;5494;51.796;10.952;2023-02-11T00:08:56;100409.75;;;4.21;100.00
18988;BME280;5494;51.796;10.952;2023-02-11T00:11:26;100395.16;;;4.25;100.00
18988;BME280;5494;51.796;10.952;2023-02-11T00:13:57;100388.28;;;4.34;100.00
18988;BME280;5494;51.796;10.952;2023-02-11T00:16:26;100382.28;;;4.34;100.00
18988;BME280;5494;51.796;10.952;2023-02-11T00:18:54;100388.28;;;4.31;100.00
18988;BME280;5494;51.796;10.952;2023-02-11T00:21:25;100371.97;;;4.31;100.00
18988;BME280;5494;51.796;10.952;2023-02-11T00:23:53;100375.41;;;4.24;100.00
18988;BME280;5494;51.796;10.952;2023-02-11T00:26:27;100370.28;;;4.27;100.00
18988;BME280;5494;51.796;10.952;2023-02-11T00:28:56;100357.38;;;4.34;100.00
18988;BME280;5494;51.796;10.952;2023-02-11T00:31:25;100353.97;;;4.34;100.00
18988;BME280;5494;51.796;10.952;2023-02-11T00:33:53;100360.81;;;4.35;100.00
18988;BME280;5494;51.796;10.952;2023-02-11T00:36:24;100352.22;;;4.36;100.00
18988;BME280;5494;51.796;10.952;2023-02-11T00:38:54;100339.31;;;4.45;100.00
18988;BME280;5494;51.796;10.952;2023-02-11T00:41:25;100341.03;;;4.49;100.00
18988;BME280;5494;51.796;10.952;2023-02-11T00:43:53;100341.88;;;4.54;100.00
18988;BME280;5494;51.796;10.952;2023-02-11T00:46:21;100329.03;;;4.48;100.00
18988;BME280;5494;51.796;10.952;2023-02-11T00:48:50;100323.84;;;4.53;100.00
18988;BME280;5494;51.796;10.952;2023-02-11T00:51:20;100325.56;;;4.51;100.00
18988;BME280;5494;51.796;10.952;2023-02-11T00:53:49;100316.09;;;4.60;100.00
18988;BME280;5494;51.796;10.952;2023-02-11T00:56:17;100309.22;;;4.61;100.00
18988;BME280;5494;51.796;10.952;2023-02-11T00:58:47;100304.06;;;4.59;100.00
18988;BME280;5494;51.796;10.952;2023-02-11T01:01:16;100283.47;;;4.62;100.00
18988;BME280;5494;51.796;10.952;2023-02-11T01:03:44;100286.00;;;4.65;100.00
18988;BME280;5494;51.796;10.952;2023-02-11T01:06:15;100298.91;;;4.58;100.00
18988;BME280;5494;51.796;10.952;2023-02-11T01:08:43;100295.44;;;4.65;100.00
18988;BME280;5494;51.796;10.952;2023-02-11T01:11:14;100316.88;;;4.71;100.00
18988;BME280;5494;51.796;10.952;2023-02-11T01:13:45;100328.84;;;4.80;100.00
18988;BME280;5494;51.796;10.952;2023-02-11T01:16:18;100327.09;;;4.87;100.00
18988;BME280;5494;51.796;10.952;2023-02-11T01:18:49;100322.84;;;4.83;100.00
18988;BME280;5494;51.796;10.952;2023-02-11T01:21:17;100341.72;;;4.83;100.00
18988;BME280;5494;51.796;10.952;2023-02-11T01:23:46;100333.13;;;4.83;100.00
18988;BME280;5494;51.796;10.952;2023-02-11T01:26:14;100318.53;;;4.79;100.00
18988;BME280;5494;51.796;10.952;2023-02-11T01:28:42;100315.16;;;4.73;100.00
18988;BME280;5494;51.796;10.952;2023-02-11T01:31:10;100322.00;;;4.74;100.00
18988;BME280;5494;51.796;10.952;2023-02-11T01:33:39;100325.41;;;4.80;100.00
18988;BME280;5494;51.796;10.952;2023-02-11T01:36:10;100333.06;;;4.92;100.00
18988;BME280;5494;51.796;10.952;2023-02-11T01:38:38;100327.94;;;4.90;100.00
18988;BME280;5494;51.796;10.952;2023-02-11T01:41:11;100339.88;;;5.02;100.00
18988;BME280;5494;51.796;10.952;2023-02-11T01:43:42;100349.34;;;5.03;100.00
18988;BME280;5494;51.796;10.952;2023-02-11T01:46:27;100339.84;;;5.11;100.00
18988;BME280;5494;51.796;10.952;2023-02-11T01:49:05;100342.38;;;5.17;100.00
18988;BME280;5494;51.796;10.952;2023-02-11T01:51:39;100337.22;;;5.17;100.00
18988;BME280;5494;51.796;10.952;2023-02-11T01:54:11;100328.63;;;5.12;100.00
18988;BME280;5494;51.796;10.952;2023-02-11T01:57:01;100316.50;;;5.29;100.00
18988;BME280;5494;51.796;10.952;2023-02-11T02:00:10;100306.22;;;5.23;100.00
18988;BME280;5494;51.796;10.952;2023-02-11T02:02:49;100313.91;;;5.28;100.00
18988;BME280;5494;51.796;10.952;2023-02-11T02:05:29;100304.47;;;5.31;100.00
18988;BME280;5494;51.796;10.952;2023-02-11T02:08:08;100290.59;;;5.44;100.00
18988;BME280;5494;51.796;10.952;2023-02-11T02:10:42;100278.56;;;5.40;100.00
18988;BME280;5494;51.796;10.952;2023-02-11T02:13:12;100289.59;;;5.58;100.00
18988;BME280;5494;51.796;10.952;2023-02-11T02:15:48;100276.66;;;5.61;100.00
18988;BME280;5494;51.796;10.952;2023-02-11T02:18:34;100282.66;;;5.63;100.00
18988;BME280;5494;51.796;10.952;2023-02-11T02:21:31;100271.50;;;5.64;100.00
18988;BME280;5494;51.796;10.952;2023-02-11T02:24:40;100272.22;;;5.78;100.00
18988;BME280;5494;51.796;10.952;2023-02-11T02:27:31;100269.63;;;5.78;100.00
18988;BME280;5494;51.796;10.952;2023-02-11T02:30:50;100264.41;;;5.82;100.00
18988;BME280;5494;51.796;10.952;2023-02-11T02:33:40;100254.91;;;5.86;100.00
18988;BME280;5494;51.796;10.952;2023-02-11T02:36:17;100248.03;;;5.86;100.00
18988;BME280;5494;51.796;10.952;2023-02-11T02:38:54;100248.84;;;5.95;100.00
18988;BME280;5494;51.796;10.952;2023-02-11T02:41:29;100248.00;;;5.91;100.00
18988;BME280;5494;51.796;10.952;2023-02-11T02:43:58;100245.47;;;5.83;100.00
18988;BME280;5494;51.796;10.952;2023-02-11T02:46:29;100243.75;;;5.82;100.00
18988;BME280;5494;51.796;10.952;2023-02-11T02:49:00;100235.13;;;5.86;100.00
18988;BME280;5494;51.796;10.952;2023-02-11T02:51:51;100254.94;;;5.83;100.00
18988;BME280;5494;51.796;10.952;2023-02-11T02:54:55;100249.78;;;5.83;100.00
18988;BME280;5494;51.796;10.952;2023-02-11T02:57:37;100262.56;;;5.97;100.00
18988;BME280;5494;51.796;10.952;2023-02-11T03:00:22;100269.34;;;6.05;100.00
18988;BME280;5494;51.796;10.952;2023-02-11T03:03:12;100261.75;;;5.93;100.00
18988;BME280;5494;51.796;10.952;2023-02-11T03:05:52;100276.31;;;6.00;100.00
18988;BME280;5494;51.796;10.952;2023-02-11T03:08:29;100288.44;;;5.90;100.00
18988;BME280;5494;51.796;10.952;2023-02-11T03:11:02;100290.06;;;5.99;100.00
18988;BME280;5494;51.796;10.952;2023-02-11T03:13:35;100295.22;;;5.99;100.00
18988;BME280;5494;51.796;10.952;2023-02-11T03:16:15;100286.41;;;6.17;100.00
18988;BME280;5494;51.796;10.952;2023-02-11T03:18:49;100299.47;;;6.03;100.00
18988;BME280;5494;51.796;10.952;2023-02-11T03:21:23;100293.59;;;5.92;100.00
18988;BME280;5494;51.796;10.952;2023-02-11T03:23:54;100288.34;;;6.01;100.00
18988;BME280;5494;51.796;10.952;2023-02-11T03:26:29;100300.47;;;5.90;100.00
18988;BME280;5494;51.796;10.952;2023-02-11T03:29:04;100303.84;;;5.98;100.00
18988;BME280;5494;51.796;10.952;2023-02-11T03:31:42;100306.25;;;6.13;100.00
18988;BME280;5494;51.796;10.952;2023-02-11T03:34:21;100299.31;;;6.18;100.00
18988;BME280;5494;51.796;10.952;2023-02-11T03:37:00;100281.09;;;6.30;100.00
18988;BME280;5494;51.796;10.952;2023-02-11T03:39:37;100297.25;;;6.45;100.00
18988;BME280;5494;51.796;10.952;2023-02-11T03:42:08;100295.59;;;6.42;100.00
18988;BME280;5494;51.796;10.952;2023-02-11T03:44:42;100296.44;;;6.43;100.00
18988;BME280;5494;51.796;10.952;2023-02-11T03:47:14;100273.22;;;6.41;100.00
18988;BME280;5494;51.796;10.952;2023-02-11T03:49:49;100272.34;;;6.42;100.00
18988;BME280;5494;51.796;10.952;2023-02-11T03:52:21;100267.03;;;6.53;100.00
18988;BME280;5494;51.796;10.952;2023-02-11T03:54:57;100269.59;;;6.53;100.00
18988;BME280;5494;51.796;10.952;2023-02-11T03:57:27;100263.56;;;6.54;100.00
18988;BME280;5494;51.796;10.952;2023-02-11T03:59:57;100269.69;;;6.48;100.00
18988;BME280;5494;51.796;10.952;2023-02-11T04:02:32;100260.16;;;6.52;100.00
18988;BME280;5494;51.796;10.952;2023-02-11T04:05:00;100261.06;;;6.49;100.00
18988;BME280;5494;51.796;10.952;2023-02-11T04:07:30;100260.22;;;6.49;100.00
18988;BME280;5494;51.796;10.952;2023-02-11T04:09:58;100256.81;;;6.44;100.00
18988;BME280;5494;51.796;10.952;2023-02-11T04:12:26;100260.22;;;6.49;100.00
18988;BME280;5494;51.796;10.952;2023-02-11T04:14:54;100259.28;;;6.51;100.00
18988;BME280;5494;51.796;10.952;2023-02-11T04:17:23;100260.22;;;6.49;100.00
18988;BME280;5494;51.796;10.952;2023-02-11T04:19:51;100272.28;;;6.47;100.00
18988;BME280;5494;51.796;10.952;2023-02-11T04:22:18;100263.59;;;6.51;100.00
18988;BME280;5494;51.796;10.952;2023-02-11T04:24:48;100259.34;;;6.50;100.00
18988;BME280;5494;51.796;10.952;2023-02-11T04:27:16;100252.41;;;6.50;100.00
18988;BME280;5494;51.796;10.952;2023-02-11T04:29:44;100261.00;;;6.52;100.00
18988;BME280;5494;51.796;10.952;2023-02-11T04:32:12;100261.09;;;6.46;100.00
18988;BME280;5494;51.796;10.952;2023-02-11T04:34:40;100267.97;;;6.46;100.00
18988;BME280;5494;51.796;10.952;2023-02-11T04:37:08;100255.06;;;6.46;100.00
18988;BME280;5494;51.796;10.952;2023-02-11T04:39:36;100255.91;;;6.49;100.00
18988;BME280;5494;51.796;10.952;2023-02-11T04:42:06;100267.97;;;6.47;100.00
18988;BME280;5494;51.796;10.952;2023-02-11T04:44:34;100267.97;;;6.47;100.00
18988;BME280;5494;51.796;10.952;2023-02-11T04:47:02;100271.31;;;6.55;100.00
18988;BME280;5494;51.796;10.952;2023-02-11T04:49:30;100266.13;;;6.55;100.00
18988;BME280;5494;51.796;10.952;2023-02-11T04:51:58;100260.13;;;6.55;100.00
18988;BME280;5494;51.796;10.952;2023-02-11T04:54:26;100258.50;;;6.48;100.00
18988;BME280;5494;51.796;10.952;2023-02-11T04:56:54;100261.09;;;6.46;100.00
18988;BME280;5494;51.796;10.952;2023-02-11T04:59:24;100260.28;;;6.43;100.00
18988;BME280;5494;51.796;10.952;2023-02-11T05:01:52;100266.25;;;6.45;100.00
18988;BME280;5494;51.796;10.952;2023-02-11T05:04:20;100256.78;;;6.47;100.00
18988;BME280;5494;51.796;10.952;2023-02-11T05:06:48;100255.06;;;6.46;100.00
18988;BME280;5494;51.796;10.952;2023-02-11T05:09:16;100250.84;;;6.39;100.00
18988;BME280;5494;51.796;10.952;2023-02-11T05:11:44;100257.75;;;6.37;100.00
18988;BME280;5494;51.796;10.952;2023-02-11T05:14:12;100262.91;;;6.40;100.00
18988;BME280;5494;51.796;10.952;2023-02-11T05:16:41;100245.75;;;6.36;100.00
18988;BME280;5494;51.796;10.952;2023-02-11T05:19:09;100254.22;;;6.44;100.00
18988;BME280;5494;51.796;10.952;2023-02-11T05:21:37;100249.81;;;6.50;100.00
18988;BME280;5494;51.796;10.952;2023-02-11T05:24:11;100237.06;;;6.40;100.00
18988;BME280;5494;51.796;10.952;2023-02-11T05:26:39;100227.59;;;6.42;100.00
18988;BME280;5494;51.796;10.952;2023-02-11T05:29:07;100229.25;;;6.44;100.00
18988;BME280;5494;51.796;10.952;2023-02-11T05:31:35;100226.63;;;6.49;100.00
18988;BME280;5494;51.796;10.952;2023-02-11T05:34:05;100232.75;;;6.40;100.00
18988;BME280;5494;51.796;10.952;2023-02-11T05:36:33;100231.03;;;6.41;100.00
18988;BME280;5494;51.796;10.952;2023-02-11T05:39:00;100233.69;;;6.36;100.00
18988;BME280;5494;51.796;10.952;2023-02-11T05:41:29;100227.69;;;6.34;100.00
18988;BME280;5494;51.796;10.952;2023-02-11T05:43:56;100231.91;;;6.40;100.00
18988;BME280;5494;51.796;10.952;2023-02-11T05:46:24;100228.59;;;6.30;100.00
18988;BME280;5494;51.796;10.952;2023-02-11T05:48:52;100241.56;;;6.25;100.00
18988;BME280;5494;51.796;10.952;2023-02-11T05:51:23;100242.44;;;6.23;100.00
18988;BME280;5494;51.796;10.952;2023-02-11T05:53:51;100242.50;;;6.21;100.00
18988;BME280;5494;51.796;10.952;2023-02-11T05:56:19;100239.00;;;6.22;100.00
18988;BME280;5494;51.796;10.952;2023-02-11T05:58:47;100245.78;;;6.31;100.00
18988;BME280;5494;51.796;10.952;2023-02-11T06:01:15;100238.03;;;6.31;100.00
18988;BME280;5494;51.796;10.952;2023-02-11T06:03:43;100234.69;;;6.24;100.00
18988;BME280;5494;51.796;10.952;2023-02-11T06:06:12;100233.88;;;6.21;100.00
18988;BME280;5494;51.796;10.952;2023-02-11T06:08:41;100227.03;;;6.18;100.00
18988;BME280;5494;51.796;10.952;2023-02-11T06:11:09;100239.91;;;6.21;100.00
18988;BME280;5494;51.796;10.952;2023-02-11T06:13:37;100239.84;;;6.24;100.00
18988;BME280;5494;51.796;10.952;2023-02-11T06:16:05;100227.72;;;6.31;100.00
18988;BME280;5494;51.796;10.952;2023-02-11T06:18:33;100235.47;;;6.31;100.00
18988;BME280;5494;51.796;10.952;2023-02-11T06:21:06;100222.53;;;6.32;100.00
18988;BME280;5494;51.796;10.952;2023-02-11T06:23:35;100233.75;;;6.31;100.00
18988;BME280;5494;51.796;10.952;2023-02-11T06:26:06;100226.00;;;6.31;100.00
18988;BME280;5494;51.796;10.952;2023-02-11T06:28:35;100232.88;;;6.31;100.00
18988;BME280;5494;51.796;10.952;2023-02-11T06:31:07;100242.25;;;6.37;100.00
18988;BME280;5494;51.796;10.952;2023-02-11T06:33:36;100237.16;;;6.35;100.00
18988;BME280;5494;51.796;10.952;2023-02-11T06:36:12;100242.41;;;6.29;100.00
18988;BME280;5494;51.796;10.952;2023-02-11T06:38:41;100238.97;;;6.28;100.00
18988;BME280;5494;51.796;10.952;2023-02-11T06:41:13;100234.69;;;6.23;100.00
18988;BME280;5494;51.796;10.952;2023-02-11T06:43:42;100229.63;;;6.17;100.00
18988;BME280;5494;51.796;10.952;2023-02-11T06:46:10;100234.00;;;6.10;100.00
18988;BME280;5494;51.796;10.952;2023-02-11T06:48:38;100225.47;;;6.07;100.00
18988;BME280;5494;51.796;10.952;2023-02-11T06:51:11;100213.53;;;5.98;100.00
18988;BME280;5494;51.796;10.952;2023-02-11T06:53:43;100226.50;;;5.92;100.00
18988;BME280;5494;51.796;10.952;2023-02-11T06:56:15;100234.25;;;5.90;100.00
18988;BME280;5494;51.796;10.952;2023-02-11T06:58:44;100237.75;;;5.82;100.00
18988;BME280;5494;51.796;10.952;2023-02-11T07:01:14;100236.91;;;5.81;100.00
18988;BME280;5494;51.796;10.952;2023-02-11T07:03:44;100239.44;;;5.86;100.00
18988;BME280;5494;51.796;10.952;2023-02-11T07:06:15;100235.16;;;5.85;100.00
18988;BME280;5494;51.796;10.952;2023-02-11T07:08:44;100232.53;;;5.88;100.00
18988;BME280;5494;51.796;10.952;2023-02-11T07:11:16;100229.16;;;5.81;100.00
18988;BME280;5494;51.796;10.952;2023-02-11T07:13:45;100236.09;;;5.76;100.00
18988;BME280;5494;51.796;10.952;2023-02-11T07:16:15;100231.78;;;5.80;100.00
18988;BME280;5494;51.796;10.952;2023-02-11T07:18:46;100234.31;;;5.83;100.00
18988;BME280;5494;51.796;10.952;2023-02-11T07:21:16;100236.88;;;5.84;100.00
18988;BME280;5494;51.796;10.952;2023-02-11T07:23:46;100248.88;;;5.90;100.00
18988;BME280;5494;51.796;10.952;2023-02-11T07:26:18;100254.81;;;6.00;100.00
18988;BME280;5494;51.796;10.952;2023-02-11T07:28:46;100238.41;;;6.04;100.00
18988;BME280;5494;51.796;10.952;2023-02-11T07:31:18;100246.91;;;6.10;100.00
18988;BME280;5494;51.796;10.952;2023-02-11T07:33:47;100245.09;;;6.18;100.00
18988;BME280;5494;51.796;10.952;2023-02-11T07:36:15;100238.06;;;6.29;100.00
18988;BME280;5494;51.796;10.952;2023-02-11T07:38:43;100248.34;;;6.36;100.00
18988;BME280;5494;51.796;10.952;2023-02-11T07:41:15;100245.63;;;6.43;100.00
18988;BME280;5494;51.796;10.952;2023-02-11T07:43:44;100240.41;;;6.49;100.00
18988;BME280;5494;51.796;10.952;2023-02-11T07:46:15;100250.72;;;6.49;100.00
18988;BME280;5494;51.796;10.952;2023-02-11T07:48:44;100255.81;;;6.54;100.00
18988;BME280;5494;51.796;10.952;2023-02-11T07:51:14;100252.38;;;6.55;100.00
18988;BME280;5494;51.796;10.952;2023-02-11T07:53:44;100261.78;;;6.59;100.00
18988;BME280;5494;51.796;10.952;2023-02-11T07:56:16;100248.81;;;6.62;100.00
18988;BME280;5494;51.796;10.952;2023-02-11T07:58:45;100247.03;;;6.65;100.00
18988;BME280;5494;51.796;10.952;2023-02-11T08:01:21;100241.84;;;6.68;100.00
18988;BME280;5494;51.796;10.952;2023-02-11T08:03:51;100236.69;;;6.65;100.00
18988;BME280;5494;51.796;10.952;2023-02-11T08:06:22;100242.69;;;6.70;100.00
18988;BME280;5494;51.796;10.952;2023-02-11T08:08:51;100239.94;;;6.78;100.00
18988;BME280;5494;51.796;10.952;2023-02-11T08:11:22;100225.03;;;6.97;100.00
18988;BME280;5494;51.796;10.952;2023-02-11T08:13:51;100230.72;;;7.19;100.00
18988;BME280;5494;51.796;10.952;2023-02-11T08:16:23;100231.59;;;7.18;100.00
18988;BME280;5494;51.796;10.952;2023-02-11T08:18:54;100237.44;;;7.27;100.00
18988;BME280;5494;51.796;10.952;2023-02-11T08:21:23;100240.13;;;7.23;100.00
18988;BME280;5494;51.796;10.952;2023-02-11T08:23:52;100244.41;;;7.24;100.00
18988;BME280;5494;51.796;10.952;2023-02-11T08:26:23;100242.50;;;7.33;100.00
18988;BME280;5494;51.796;10.952;2023-02-11T08:28:54;100228.75;;;7.33;100.00
18988;BME280;5494;51.796;10.952;2023-02-11T08:31:26;100242.34;;;7.42;100.00
18988;BME280;5494;51.796;10.952;2023-02-11T08:33:55;100254.31;;;7.48;100.00
18988;BME280;5494;51.796;10.952;2023-02-11T08:36:27;100249.63;;;7.68;100.00
18988;BME280;5494;51.796;10.952;2023-02-11T08:38:57;100255.41;;;7.82;100.00
18988;BME280;5494;51.796;10.952;2023-02-11T08:41:46;100264.97;;;7.80;100.00
18988;BME280;5494;51.796;10.952;2023-02-11T08:44:15;100263.03;;;7.90;100.00
18988;BME280;5494;51.796;10.952;2023-02-11T08:46:43;100271.72;;;7.87;100.00
18988;BME280;5494;51.796;10.952;2023-02-11T08:49:11;100266.22;;;8.04;100.00
18988;BME280;5494;51.796;10.952;2023-02-11T08:51:39;100264.59;;;7.99;100.00
18988;BME280;5494;51.796;10.952;2023-02-11T08:54:08;100276.66;;;8.00;100.00
18988;BME280;5494;51.796;10.952;2023-02-11T08:56:37;100284.03;;;8.19;100.00
18988;BME280;5494;51.796;10.952;2023-02-11T08:59:08;100293.78;;;8.08;100.00
18988;BME280;5494;51.796;10.952;2023-02-11T09:01:39;100281.56;;;8.13;100.00
18988;BME280;5494;51.796;10.952;2023-02-11T09:04:09;100289.06;;;8.27;100.00
18988;BME280;5494;51.796;10.952;2023-02-11T09:06:37;100286.53;;;8.24;100.00
18988;BME280;5494;51.796;10.952;2023-02-11T09:09:09;100296.19;;;8.59;100.00
18988;BME280;5494;51.796;10.952;2023-02-11T09:11:40;100300.16;;;8.75;100.00
18988;BME280;5494;51.796;10.952;2023-02-11T09:14:17;100289.31;;;8.96;100.00
18988;BME280;5494;51.796;10.952;2023-02-11T09:16:47;100288.78;;;9.19;98.54
18988;BME280;5494;51.796;10.952;2023-02-11T09:19:16;100290.78;;;9.43;96.06
18988;BME280;5494;51.796;10.952;2023-02-11T09:21:45;100278.22;;;9.61;94.45
18988;BME280;5494;51.796;10.952;2023-02-11T09:24:13;100273.56;;;9.73;93.65
18988;BME280;5494;51.796;10.952;2023-02-11T09:26:42;100273.91;;;9.92;91.63
18988;BME280;5494;51.796;10.952;2023-02-11T09:29:11;100273.31;;;10.13;89.87
18988;BME280;5494;51.796;10.952;2023-02-11T09:31:40;100259.78;;;10.02;89.40
18988;BME280;5494;51.796;10.952;2023-02-11T09:34:09;100266.53;;;10.09;89.46
18988;BME280;5494;51.796;10.952;2023-02-11T09:36:39;100246.16;;;10.25;88.04
18988;BME280;5494;51.796;10.952;2023-02-11T09:39:11;100245.13;;;10.31;87.10
18988;BME280;5494;51.796;10.952;2023-02-11T09:42:17;100255.97;;;10.45;86.73
18988;BME280;5494;51.796;10.952;2023-02-11T09:44:53;100255.31;;;10.66;85.10
18988;BME280;5494;51.796;10.952;2023-02-11T09:47:27;100257.41;;;11.11;83.53
18988;BME280;5494;51.796;10.952;2023-02-11T09:50:01;100269.59;;;11.35;80.80
18988;BME280;5494;51.796;10.952;2023-02-11T09:52:38;100265.69;;;11.48;78.30
18988;BME280;5494;51.796;10.952;2023-02-11T09:55:17;100254.84;;;11.09;79.97
18988;BME280;5494;51.796;10.952;2023-02-11T09:57:48;100270.00;;;11.23;80.11
18988;BME280;5494;51.796;10.952;2023-02-11T10:00:22;100283.00;;;10.96;81.79
18988;BME280;5494;51.796;10.952;2023-02-11T10:03:17;100281.81;;;10.79;83.96
18988;BME280;5494;51.796;10.952;2023-02-11T10:06:05;100279.47;;;10.71;84.36
18988;BME280;5494;51.796;10.952;2023-02-11T10:08:45;100292.38;;;10.74;84.86
18988;BME280;5494;51.796;10.952;2023-02-11T10:11:23;100287.63;;;10.59;85.83
18988;BME280;5494;51.796;10.952;2023-02-11T10:14:14;100291.25;;;10.53;87.22
18988;BME280;5494;51.796;10.952;2023-02-11T10:16:58;100291.50;;;10.44;87.58
18988;BME280;5494;51.796;10.952;2023-02-11T10:19:48;100301.97;;;10.43;87.81
18988;BME280;5494;51.796;10.952;2023-02-11T10:22:27;100307.59;;;10.27;88.54
18988;BME280;5494;51.796;10.952;2023-02-11T10:24:59;100315.47;;;10.24;89.46
18988;BME280;5494;51.796;10.952;2023-02-11T10:27:34;100301.03;;;10.14;89.61
18988;BME280;5494;51.796;10.952;2023-02-11T10:30:14;100329.00;;;10.03;90.68
18988;BME280;5494;51.796;10.952;2023-02-11T10:32:51;100320.69;;;9.91;91.79
18988;BME280;5494;51.796;10.952;2023-02-11T10:35:23;100317.88;;;10.00;91.47
18988;BME280;5494;51.796;10.952;2023-02-11T10:37:54;100311.50;;;10.10;91.38
18988;BME280;5494;51.796;10.952;2023-02-11T10:40:24;100315.88;;;10.09;91.43
18988;BME280;5494;51.796;10.952;2023-02-11T10:42:56;100319.25;;;10.13;90.40
18988;BME280;5494;51.796;10.952;2023-02-11T10:45:31;100325.78;;;9.95;91.78
18988;BME280;5494;51.796;10.952;2023-02-11T10:48:04;100308.88;;;9.80;92.68
18988;BME280;5494;51.796;10.952;2023-02-11T10:50:34;100320.47;;;9.67;94.76
18988;BME280;5494;51.796;10.952;2023-02-11T10:53:16;100310.28;;;9.92;93.86
18988;BME280;5494;51.796;10.952;2023-02-11T10:55:53;100299.34;;;9.81;93.99
18988;BME280;5494;51.796;10.952;2023-02-11T10:58:25;100298.16;;;9.60;95.26
18988;BME280;5494;51.796;10.952;2023-02-11T11:00:58;100292.94;;;9.60;96.34
18988;BME280;5494;51.796;10.952;2023-02-11T11:03:32;100276.88;;;9.46;96.07
18988;BME280;5494;51.796;10.952;2023-02-11T11:06:05;100283.00;;;9.42;97.03
18988;BME280;5494;51.796;10.952;2023-02-11T11:08:41;100283.50;;;9.58;96.88
18988;BME280;5494;51.796;10.952;2023-02-11T11:11:12;100281.63;;;9.63;96.60
18988;BME280;5494;51.796;10.952;2023-02-11T11:13:53;100296.25;;;9.67;95.59
18988;BME280;5494;51.796;10.952;2023-02-11T11:16:26;100288.84;;;9.84;95.28
18988;BME280;5494;51.796;10.952;2023-02-11T11:19:21;100295.59;;;9.91;93.45
18988;BME280;5494;51.796;10.952;2023-02-11T11:21:52;100299.88;;;9.92;93.22
18988;BME280;5494;51.796;10.952;2023-02-11T11:24:23;100292.81;;;9.97;92.55
18988;BME280;5494;51.796;10.952;2023-02-11T11:26:58;100293.66;;;9.98;91.78
18988;BME280;5494;51.796;10.952;2023-02-11T11:29:33;100273.97;;;9.89;92.46
18988;BME280;5494;51.796;10.952;2023-02-11T11:32:04;100291.03;;;9.99;92.01
18988;BME280;5494;51.796;10.952;2023-02-11T11:34:39;100302.28;;;10.00;91.09
18988;BME280;5494;51.796;10.952;2023-02-11T11:37:18;100303.13;;;10.00;91.11
18988;BME280;5494;51.796;10.952;2023-02-11T11:39:55;100294.63;;;9.95;91.12
18988;BME280;5494;51.796;10.952;2023-02-11T11:42:28;100301.47;;;9.98;91.09
18988;BME280;5494;51.796;10.952;2023-02-11T11:44:58;100299.72;;;9.98;91.17
18988;BME280;5494;51.796;10.952;2023-02-11T11:47:35;100293.03;;;9.89;91.89
18988;BME280;5494;51.796;10.952;2023-02-11T11:50:34;100300.06;;;9.86;92.04
18988;BME280;5494;51.796;10.952;2023-02-11T11:53:10;100305.06;;;9.94;91.62
18988;BME280;5494;51.796;10.952;2023-02-11T11:55:44;100279.06;;;9.94;92.26
18988;BME280;5494;51.796;10.952;2023-02-11T11:58:17;100314.00;;;9.82;92.98
18988;BME280;5494;51.796;10.952;2023-02-11T12:00:58;100317.25;;;9.90;92.93
18988;BME280;5494;51.796;10.952;2023-02-11T12:07:11;100305.59;;;10.05;91.93
18988;BME280;5494;51.796;10.952;2023-02-11T12:10:04;100311.47;;;10.11;91.71
18988;BME280;5494;51.796;10.952;2023-02-11T12:12:45;100296.31;;;9.96;91.94
18988;BME280;5494;51.796;10.952;2023-02-11T12:15:31;100305.06;;;9.94;92.57
18988;BME280;5494;51.796;10.952;2023-02-11T12:18:16;100301.94;;;10.12;92.18
18988;BME280;5494;51.796;10.952;2023-02-11T12:21:09;100299.84;;;10.26;90.98
18988;BME280;5494;51.796;10.952;2023-02-11T12:23:57;100291.31;;;10.22;90.45
18988;BME280;5494;51.796;10.952;2023-02-11T12:26:36;100297.38;;;10.21;91.55
18988;BME280;5494;51.796;10.952;2023-02-11T12:29:17;100298.13;;;10.25;91.52
18988;BME280;5494;51.796;10.952;2023-02-11T12:32:04;100306.16;;;10.48;91.17
18988;BME280;5494;51.796;10.952;2023-02-11T12:37:52;100302.81;;;10.73;88.42
18988;BME280;5494;51.796;10.952;2023-02-11T12:40:37;100299.69;;;10.61;88.31
18988;BME280;5494;51.796;10.952;2023-02-11T12:43:20;100290.44;;;10.51;89.62
18988;BME280;5494;51.796;10.952;2023-02-11T12:46:29;100303.00;;;10.37;91.15
18988;BME280;5494;51.796;10.952;2023-02-11T12:49:34;100287.78;;;10.23;92.60
18988;BME280;5494;51.796;10.952;2023-02-11T12:52:26;100291.84;;;10.34;92.83
18988;BME280;5494;51.796;10.952;2023-02-11T12:55:02;100281.75;;;10.23;92.16
18988;BME280;5494;51.796;10.952;2023-02-11T12:57:36;100283.66;;;10.16;94.01
18988;BME280;5494;51.796;10.952;2023-02-11T13:00:13;100280.47;;;10.05;94.69
18988;BME280;5494;51.796;10.952;2023-02-11T13:02:49;100285.34;;;10.17;94.58
18988;BME280;5494;51.796;10.952;2023-02-11T13:05:26;100285.41;;;10.16;94.38
18988;BME280;5494;51.796;10.952;2023-02-11T13:08:03;100289.56;;;10.23;94.58
18988;BME280;5494;51.796;10.952;2023-02-11T13:10:36;100307.09;;;10.13;95.25
18988;BME280;5494;51.796;10.952;2023-02-11T13:13:15;100280.91;;;10.22;95.06
18988;BME280;5494;51.796;10.952;2023-02-11T13:15:54;100310.44;;;10.18;95.67
18988;BME280;5494;51.796;10.952;2023-02-11T13:18:41;100308.09;;;10.40;95.44
18988;BME280;5494;51.796;10.952;2023-02-11T13:21:36;100302.88;;;10.42;93.48
18988;BME280;5494;51.796;10.952;2023-02-11T13:24:21;100310.44;;;10.18;95.05
18988;BME280;5494;51.796;10.952;2023-02-11T13:27:00;100309.63;;;10.16;95.68
18988;BME280;5494;51.796;10.952;2023-02-11T13:30:17;100316.56;;;10.16;95.45
18988;BME280;5494;51.796;10.952;2023-02-11T13:33:19;100314.69;;;10.22;94.83